TimeCST,TemperatureF,Dew PointF,Humidity,Sea Level PressureIn,VisibilityMPH,Wind Direction,Wind SpeedMPH,Gust SpeedMPH,PrecipitationIn,Events,Conditions,WindDirDegrees,DateUTC
12:00 AM,68,55,54,29.87,12,ESE,15.0,,,,Scattered Clouds,110,2013-02-17 06:00:00
12:00 AM,68.0,55.4,64,30.04,6.2,ESE,15.0,26.5,N/A,,Partly Cloudy,110,2013-02-17 06:00:00
1:00 AM,68.0,57.2,68,30.02,6.2,ESE,15.0,26.5,N/A,,Partly Cloudy,110,2013-02-17 07:00:00
2:00 AM,68.0,55.4,64,30.01,6.2,ESE,15.0,26.5,N/A,,Partly Cloudy,110,2013-02-17 08:00:00
3:00 AM,68.0,53.6,60,30.00,6.2,ESE,13.8,27.6,N/A,,Partly Cloudy,110,2013-02-17 09:00:00
4:00 AM,68.0,55.4,64,30.00,6.2,ESE,12.7,24.2,N/A,,Partly Cloudy,110,2013-02-17 10:00:00
5:00 AM,68.0,53.6,60,30.01,6.2,East,13.8,25.3,N/A,,Partly Cloudy,100,2013-02-17 11:00:00
6:00 AM,67,54,53,29.87,12,East,12.7,,,,Scattered Clouds,100,2013-02-17 12:00:00
6:00 AM,66.2,53.6,64,30.03,6.2,East,12.7,-,N/A,,Partly Cloudy,100,2013-02-17 12:00:00
7:00 AM,68.0,55.4,64,30.04,6.2,East,16.1,28.8,N/A,,Partly Cloudy,100,2013-02-17 13:00:00
8:00 AM,71.6,53.6,53,30.06,6.2,East,16.1,27.6,N/A,,Partly Cloudy,100,2013-02-17 14:00:00
9:00 AM,74,53,36,29.93,12,East,17.3,,,,Scattered Clouds,90,2013-02-17 15:00:00
9:00 AM,73.4,51.8,47,30.08,-9999.0,East,17.3,29.9,N/A,,Clear,90,2013-02-17 15:00:00
10:00 AM,77.0,53.6,44,30.06,-9999.0,East,18.4,31.1,N/A,,Clear,80,2013-02-17 16:00:00
11:00 AM,78.8,51.8,39,30.04,-9999.0,East,15.0,29.9,N/A,,Clear,80,2013-02-17 17:00:00
12:00 PM,78,53,31,29.85,12,ENE,17.3,,,,Scattered Clouds,70,2013-02-17 18:00:00
12:00 PM,78.8,53.6,42,30.01,6.2,ENE,17.3,28.8,N/A,,Partly Cloudy,70,2013-02-17 18:00:00
1:00 PM,80.6,51.8,37,29.99,6.2,East,13.8,25.3,N/A,,Partly Cloudy,90,2013-02-17 19:00:00
2:00 PM,80.6,51.8,37,29.96,6.2,East,15.0,28.8,N/A,,Partly Cloudy,90,2013-02-17 20:00:00
3:00 PM,80,52,27,29.80,12,East,13.8,,,,Scattered Clouds,100,2013-02-17 21:00:00
3:00 PM,80.6,51.8,37,29.95,6.2,East,13.8,25.3,N/A,,Partly Cloudy,100,2013-02-17 21:00:00
4:00 PM,75.2,55.4,50,29.96,6.2,ESE,16.1,27.6,N/A,,Partly Cloudy,110,2013-02-17 22:00:00
5:06 PM,75.2,55.4,50,29.96,6.2,ESE,16.1,27.6,N/A,,Partly Cloudy,110,2013-02-17 23:06:00
6:00 PM,73,51,34,29.86,12,East,13.8,,,,Scattered Clouds,90,2013-02-18 00:00:00
6:00 PM,73.4,50.0,44,29.98,6.2,East,13.8,-,N/A,,Partly Cloudy,90,2013-02-18 00:00:00
7:00 PM,69.8,51.8,53,30.02,6.2,East,11.5,-,N/A,,Partly Cloudy,100,2013-02-18 01:00:00
8:00 PM,68.0,55.4,64,30.05,6.2,East,8.1,-,N/A,,Partly Cloudy,90,2013-02-18 02:00:00
9:00 PM,67,56,58,29.93,12,ESE,11.5,,,,Scattered Clouds,110,2013-02-18 03:00:00
9:00 PM,68.0,55.4,64,30.06,6.2,ESE,11.5,-,N/A,,Partly Cloudy,110,2013-02-18 03:00:00
10:00 PM,66.2,55.4,68,30.07,6.2,ESE,9.2,-,N/A,,Partly Cloudy,110,2013-02-18 04:00:00
11:00 PM,68.0,55.4,64,30.05,6.2,East,13.8,-,N/A,,Partly Cloudy,100,2013-02-18 05:00:00